sensor_id;sensor_type;location;lat;lon;timestamp;P1;durP1;ratioP1;P2;durP2;ratioP2
9128;SDS011;4599;50.906;6.786;2023-08-20T00:02:16;6.33;;;4.30;;
9128;SDS011;4599;50.906;6.786;2023-08-20T00:06:40;5.07;;;4.30;;
9128;SDS011;4599;50.906;6.786;2023-08-20T00:11:03;5.23;;;4.53;;
9128;SDS011;4599;50.906;6.786;2023-08-20T00:15:26;9.13;;;5.30;;
9128;SDS011;4599;50.906;6.786;2023-08-20T00:19:48;6.33;;;5.50;;
9128;SDS011;4599;50.906;6.786;2023-08-20T00:24:11;8.13;;;5.90;;
9128;SDS011;4599;50.906;6.786;2023-08-20T00:28:34;6.07;;;5.47;;
9128;SDS011;4599;50.906;6.786;2023-08-20T00:32:57;7.97;;;6.20;;
9128;SDS011;4599;50.906;6.786;2023-08-20T00:37:19;7.70;;;6.07;;
9128;SDS011;4599;50.906;6.786;2023-08-20T00:41:42;8.07;;;6.10;;
9128;SDS011;4599;50.906;6.786;2023-08-20T00:46:03;7.43;;;5.43;;
9128;SDS011;4599;50.906;6.786;2023-08-20T00:50:27;10.27;;;5.57;;
9128;SDS011;4599;50.906;6.786;2023-08-20T00:54:49;8.83;;;6.40;;
9128;SDS011;4599;50.906;6.786;2023-08-20T00:59:12;7.13;;;6.17;;
9128;SDS011;4599;50.906;6.786;2023-08-20T01:03:34;7.17;;;5.77;;
9128;SDS011;4599;50.906;6.786;2023-08-20T01:08:00;6.03;;;4.57;;
9128;SDS011;4599;50.906;6.786;2023-08-20T01:12:32;8.23;;;5.20;;
9128;SDS011;4599;50.906;6.786;2023-08-20T01:16:56;7.57;;;5.57;;
9128;SDS011;4599;50.906;6.786;2023-08-20T01:21:22;8.37;;;5.77;;
9128;SDS011;4599;50.906;6.786;2023-08-20T01:25:58;7.80;;;5.20;;
9128;SDS011;4599;50.906;6.786;2023-08-20T01:30:31;10.43;;;5.60;;
9128;SDS011;4599;50.906;6.786;2023-08-20T01:34:53;8.10;;;6.17;;
9128;SDS011;4599;50.906;6.786;2023-08-20T01:39:15;10.17;;;5.17;;
9128;SDS011;4599;50.906;6.786;2023-08-20T01:43:37;7.03;;;5.37;;
9128;SDS011;4599;50.906;6.786;2023-08-20T01:48:00;10.50;;;4.87;;
9128;SDS011;4599;50.906;6.786;2023-08-20T01:52:22;7.77;;;5.30;;
9128;SDS011;4599;50.906;6.786;2023-08-20T01:56:44;8.13;;;5.50;;
9128;SDS011;4599;50.906;6.786;2023-08-20T02:01:06;10.90;;;6.20;;
9128;SDS011;4599;50.906;6.786;2023-08-20T02:05:30;9.30;;;6.30;;
9128;SDS011;4599;50.906;6.786;2023-08-20T02:09:52;7.83;;;5.90;;
9128;SDS011;4599;50.906;6.786;2023-08-20T02:14:13;8.60;;;5.90;;
9128;SDS011;4599;50.906;6.786;2023-08-20T02:18:35;7.87;;;6.63;;
9128;SDS011;4599;50.906;6.786;2023-08-20T02:22:58;8.10;;;7.27;;
9128;SDS011;4599;50.906;6.786;2023-08-20T02:27:20;10.13;;;6.43;;
9128;SDS011;4599;50.906;6.786;2023-08-20T02:31:42;11.80;;;6.70;;
9128;SDS011;4599;50.906;6.786;2023-08-20T02:36:04;8.30;;;5.80;;
9128;SDS011;4599;50.906;6.786;2023-08-20T02:40:28;10.67;;;6.37;;
9128;SDS011;4599;50.906;6.786;2023-08-20T02:44:50;7.13;;;5.47;;
9128;SDS011;4599;50.906;6.786;2023-08-20T02:49:12;11.23;;;5.77;;
9128;SDS011;4599;50.906;6.786;2023-08-20T02:53:34;9.70;;;5.50;;
9128;SDS011;4599;50.906;6.786;2023-08-20T02:57:57;10.40;;;5.97;;
9128;SDS011;4599;50.906;6.786;2023-08-20T03:02:19;10.43;;;6.07;;
9128;SDS011;4599;50.906;6.786;2023-08-20T03:06:42;9.80;;;6.20;;
9128;SDS011;4599;50.906;6.786;2023-08-20T03:11:05;9.63;;;6.40;;
9128;SDS011;4599;50.906;6.786;2023-08-20T03:15:28;12.47;;;6.10;;
9128;SDS011;4599;50.906;6.786;2023-08-20T03:19:54;6.83;;;5.67;;
9128;SDS011;4599;50.906;6.786;2023-08-20T03:24:17;8.33;;;5.57;;
9128;SDS011;4599;50.906;6.786;2023-08-20T03:28:38;10.23;;;5.70;;
9128;SDS011;4599;50.906;6.786;2023-08-20T03:33:02;7.13;;;5.87;;
9128;SDS011;4599;50.906;6.786;2023-08-20T03:37:24;10.17;;;6.27;;
9128;SDS011;4599;50.906;6.786;2023-08-20T03:41:47;12.03;;;6.40;;
9128;SDS011;4599;50.906;6.786;2023-08-20T03:46:09;8.30;;;5.97;;
9128;SDS011;4599;50.906;6.786;2023-08-20T03:50:32;13.27;;;7.53;;
9128;SDS011;4599;50.906;6.786;2023-08-20T03:54:54;9.63;;;7.47;;
9128;SDS011;4599;50.906;6.786;2023-08-20T03:59:16;11.47;;;9.00;;
9128;SDS011;4599;50.906;6.786;2023-08-20T04:03:38;14.63;;;10.90;;
9128;SDS011;4599;50.906;6.786;2023-08-20T04:08:02;12.33;;;6.60;;
9128;SDS011;4599;50.906;6.786;2023-08-20T04:12:24;18.47;;;12.23;;
9128;SDS011;4599;50.906;6.786;2023-08-20T04:16:46;13.07;;;9.33;;
9128;SDS011;4599;50.906;6.786;2023-08-20T04:21:08;17.30;;;11.43;;
9128;SDS011;4599;50.906;6.786;2023-08-20T04:25:31;18.43;;;12.60;;
9128;SDS011;4599;50.906;6.786;2023-08-20T04:29:53;20.67;;;14.67;;
9128;SDS011;4599;50.906;6.786;2023-08-20T04:34:15;22.60;;;16.50;;
9128;SDS011;4599;50.906;6.786;2023-08-20T04:38:37;24.03;;;16.07;;
9128;SDS011;4599;50.906;6.786;2023-08-20T04:43:00;20.87;;;14.60;;
9128;SDS011;4599;50.906;6.786;2023-08-20T04:47:22;21.43;;;13.63;;
9128;SDS011;4599;50.906;6.786;2023-08-20T04:51:44;23.03;;;14.00;;
9128;SDS011;4599;50.906;6.786;2023-08-20T04:56:06;24.43;;;14.03;;
9128;SDS011;4599;50.906;6.786;2023-08-20T05:00:30;19.97;;;13.90;;
9128;SDS011;4599;50.906;6.786;2023-08-20T05:04:52;15.47;;;12.43;;
9128;SDS011;4599;50.906;6.786;2023-08-20T05:09:14;20.03;;;13.17;;
9128;SDS011;4599;50.906;6.786;2023-08-20T05:13:36;21.10;;;12.87;;
9128;SDS011;4599;50.906;6.786;2023-08-20T05:17:59;21.47;;;12.40;;
9128;SDS011;4599;50.906;6.786;2023-08-20T05:22:21;17.67;;;13.30;;
9128;SDS011;4599;50.906;6.786;2023-08-20T05:26:43;18.57;;;12.37;;
9128;SDS011;4599;50.906;6.786;2023-08-20T05:31:05;14.30;;;11.17;;
9128;SDS011;4599;50.906;6.786;2023-08-20T05:35:28;15.73;;;10.57;;
9128;SDS011;4599;50.906;6.786;2023-08-20T05:39:50;16.23;;;11.50;;
9128;SDS011;4599;50.906;6.786;2023-08-20T05:44:13;13.50;;;10.27;;
9128;SDS011;4599;50.906;6.786;2023-08-20T05:48:34;16.17;;;10.30;;
9128;SDS011;4599;50.906;6.786;2023-08-20T05:52:58;19.63;;;12.10;;
9128;SDS011;4599;50.906;6.786;2023-08-20T05:57:20;14.53;;;10.80;;
9128;SDS011;4599;50.906;6.786;2023-08-20T06:01:42;14.10;;;9.90;;
9128;SDS011;4599;50.906;6.786;2023-08-20T06:06:04;20.17;;;10.60;;
9128;SDS011;4599;50.906;6.786;2023-08-20T06:10:31;13.60;;;10.07;;
9128;SDS011;4599;50.906;6.786;2023-08-20T06:14:53;18.93;;;10.20;;
9128;SDS011;4599;50.906;6.786;2023-08-20T06:19:15;15.37;;;9.87;;
9128;SDS011;4599;50.906;6.786;2023-08-20T06:23:38;13.63;;;9.80;;
9128;SDS011;4599;50.906;6.786;2023-08-20T06:28:08;14.87;;;9.03;;
9128;SDS011;4599;50.906;6.786;2023-08-20T06:32:30;17.37;;;12.03;;
9128;SDS011;4599;50.906;6.786;2023-08-20T06:36:52;13.13;;;9.13;;
9128;SDS011;4599;50.906;6.786;2023-08-20T06:41:14;15.90;;;11.10;;
9128;SDS011;4599;50.906;6.786;2023-08-20T06:45:37;15.93;;;9.97;;
9128;SDS011;4599;50.906;6.786;2023-08-20T06:49:59;16.00;;;10.13;;
9128;SDS011;4599;50.906;6.786;2023-08-20T06:54:22;16.90;;;9.57;;
9128;SDS011;4599;50.906;6.786;2023-08-20T06:58:44;17.13;;;10.90;;
9128;SDS011;4599;50.906;6.786;2023-08-20T07:03:07;16.17;;;10.63;;
9128;SDS011;4599;50.906;6.786;2023-08-20T07:07:29;13.93;;;11.10;;
9128;SDS011;4599;50.906;6.786;2023-08-20T07:11:51;15.00;;;10.63;;
9128;SDS011;4599;50.906;6.786;2023-08-20T07:16:13;19.50;;;11.33;;
9128;SDS011;4599;50.906;6.786;2023-08-20T07:20:36;18.10;;;10.10;;
9128;SDS011;4599;50.906;6.786;2023-08-20T07:24:59;14.90;;;9.80;;
9128;SDS011;4599;50.906;6.786;2023-08-20T07:29:20;17.90;;;9.70;;
9128;SDS011;4599;50.906;6.786;2023-08-20T07:33:45;19.37;;;10.70;;
9128;SDS011;4599;50.906;6.786;2023-08-20T07:38:09;14.97;;;8.40;;
9128;SDS011;4599;50.906;6.786;2023-08-20T07:42:30;21.00;;;12.20;;
9128;SDS011;4599;50.906;6.786;2023-08-20T07:46:52;17.10;;;10.10;;
9128;SDS011;4599;50.906;6.786;2023-08-20T07:51:14;17.77;;;11.07;;
9128;SDS011;4599;50.906;6.786;2023-08-20T07:55:38;19.93;;;10.37;;
9128;SDS011;4599;50.906;6.786;2023-08-20T08:00:01;18.37;;;10.33;;
9128;SDS011;4599;50.906;6.786;2023-08-20T08:04:25;14.87;;;9.60;;
9128;SDS011;4599;50.906;6.786;2023-08-20T08:08:47;16.70;;;10.23;;
9128;SDS011;4599;50.906;6.786;2023-08-20T08:13:12;16.23;;;9.27;;
9128;SDS011;4599;50.906;6.786;2023-08-20T08:17:34;14.87;;;9.83;;
9128;SDS011;4599;50.906;6.786;2023-08-20T08:21:57;14.93;;;11.07;;
9128;SDS011;4599;50.906;6.786;2023-08-20T08:26:19;14.20;;;8.93;;
9128;SDS011;4599;50.906;6.786;2023-08-20T08:30:42;12.97;;;8.97;;
9128;SDS011;4599;50.906;6.786;2023-08-20T08:35:05;17.90;;;9.33;;
9128;SDS011;4599;50.906;6.786;2023-08-20T08:39:27;15.27;;;9.60;;
9128;SDS011;4599;50.906;6.786;2023-08-20T08:43:49;12.87;;;8.33;;
9128;SDS011;4599;50.906;6.786;2023-08-20T08:48:12;12.47;;;7.97;;
9128;SDS011;4599;50.906;6.786;2023-08-20T08:52:35;13.77;;;7.40;;
9128;SDS011;4599;50.906;6.786;2023-08-20T08:56:58;10.53;;;6.57;;
9128;SDS011;4599;50.906;6.786;2023-08-20T09:01:21;12.33;;;7.60;;
9128;SDS011;4599;50.906;6.786;2023-08-20T09:05:48;8.47;;;5.90;;
9128;SDS011;4599;50.906;6.786;2023-08-20T09:10:11;13.27;;;6.97;;
9128;SDS011;4599;50.906;6.786;2023-08-20T09:14:33;9.05;;;6.47;;
9128;SDS011;4599;50.906;6.786;2023-08-20T09:18:57;12.93;;;6.90;;
9128;SDS011;4599;50.906;6.786;2023-08-20T09:23:22;14.13;;;6.53;;
9128;SDS011;4599;50.906;6.786;2023-08-20T09:27:44;11.05;;;6.75;;
9128;SDS011;4599;50.906;6.786;2023-08-20T09:32:06;11.20;;;6.38;;
9128;SDS011;4599;50.906;6.786;2023-08-20T09:36:32;7.10;;;5.88;;
9128;SDS011;4599;50.906;6.786;2023-08-20T09:40:56;10.30;;;6.57;;
9128;SDS011;4599;50.906;6.786;2023-08-20T09:45:18;9.68;;;6.50;;
9128;SDS011;4599;50.906;6.786;2023-08-20T09:49:41;8.48;;;5.55;;
9128;SDS011;4599;50.906;6.786;2023-08-20T09:54:07;12.15;;;7.35;;
9128;SDS011;4599;50.906;6.786;2023-08-20T09:58:36;10.82;;;7.40;;
9128;SDS011;4599;50.906;6.786;2023-08-20T10:02:59;12.68;;;8.07;;
9128;SDS011;4599;50.906;6.786;2023-08-20T10:07:22;10.25;;;7.45;;
9128;SDS011;4599;50.906;6.786;2023-08-20T10:11:44;11.27;;;7.05;;
9128;SDS011;4599;50.906;6.786;2023-08-20T10:16:08;9.43;;;6.78;;
9128;SDS011;4599;50.906;6.786;2023-08-20T10:20:31;10.88;;;6.10;;
9128;SDS011;4599;50.906;6.786;2023-08-20T10:24:53;9.50;;;6.18;;
9128;SDS011;4599;50.906;6.786;2023-08-20T10:33:57;10.57;;;6.28;;
9128;SDS011;4599;50.906;6.786;2023-08-20T10:38:19;10.18;;;7.63;;
9128;SDS011;4599;50.906;6.786;2023-08-20T10:42:41;8.00;;;7.03;;
9128;SDS011;4599;50.906;6.786;2023-08-20T10:47:04;10.27;;;7.32;;
9128;SDS011;4599;50.906;6.786;2023-08-20T10:51:32;9.05;;;6.47;;
9128;SDS011;4599;50.906;6.786;2023-08-20T10:56:04;13.60;;;7.50;;
9128;SDS011;4599;50.906;6.786;2023-08-20T11:00:29;8.73;;;7.10;;
9128;SDS011;4599;50.906;6.786;2023-08-20T11:04:51;9.90;;;7.40;;
9128;SDS011;4599;50.906;6.786;2023-08-20T11:09:15;7.97;;;7.15;;
9128;SDS011;4599;50.906;6.786;2023-08-20T11:13:36;9.90;;;6.40;;
9128;SDS011;4599;50.906;6.786;2023-08-20T11:17:58;8.20;;;6.82;;
9128;SDS011;4599;50.906;6.786;2023-08-20T11:22:20;7.43;;;6.68;;
9128;SDS011;4599;50.906;6.786;2023-08-20T11:26:44;7.05;;;6.30;;
9128;SDS011;4599;50.906;6.786;2023-08-20T11:31:06;8.13;;;6.35;;
9128;SDS011;4599;50.906;6.786;2023-08-20T11:35:29;8.93;;;5.40;;
9128;SDS011;4599;50.906;6.786;2023-08-20T11:39:51;7.05;;;5.70;;
9128;SDS011;4599;50.906;6.786;2023-08-20T11:44:20;6.80;;;5.88;;
9128;SDS011;4599;50.906;6.786;2023-08-20T11:53:23;5.90;;;5.30;;
9128;SDS011;4599;50.906;6.786;2023-08-20T11:57:49;7.80;;;5.35;;
9128;SDS011;4599;50.906;6.786;2023-08-20T12:02:13;5.72;;;5.10;;
9128;SDS011;4599;50.906;6.786;2023-08-20T12:06:38;5.95;;;4.70;;
9128;SDS011;4599;50.906;6.786;2023-08-20T12:11:00;6.80;;;4.00;;
9128;SDS011;4599;50.906;6.786;2023-08-20T12:15:23;4.07;;;3.78;;
9128;SDS011;4599;50.906;6.786;2023-08-20T12:19:47;4.20;;;3.55;;
9128;SDS011;4599;50.906;6.786;2023-08-20T12:24:09;5.30;;;4.00;;
9128;SDS011;4599;50.906;6.786;2023-08-20T12:28:32;4.20;;;3.80;;
9128;SDS011;4599;50.906;6.786;2023-08-20T12:32:54;5.80;;;3.85;;
9128;SDS011;4599;50.906;6.786;2023-08-20T12:37:17;5.30;;;4.10;;
9128;SDS011;4599;50.906;6.786;2023-08-20T12:41:39;5.43;;;4.75;;
9128;SDS011;4599;50.906;6.786;2023-08-20T12:46:01;6.00;;;4.53;;
9128;SDS011;4599;50.906;6.786;2023-08-20T12:50:23;6.13;;;4.10;;
9128;SDS011;4599;50.906;6.786;2023-08-20T12:54:47;4.35;;;3.95;;
9128;SDS011;4599;50.906;6.786;2023-08-20T12:59:09;4.38;;;3.97;;
9128;SDS011;4599;50.906;6.786;2023-08-20T13:03:31;8.32;;;4.40;;
9128;SDS011;4599;50.906;6.786;2023-08-20T13:07:54;4.88;;;4.18;;
9128;SDS011;4599;50.906;6.786;2023-08-20T13:12:18;6.45;;;4.03;;
9128;SDS011;4599;50.906;6.786;2023-08-20T13:16:44;5.88;;;4.30;;
9128;SDS011;4599;50.906;6.786;2023-08-20T13:21:08;4.88;;;4.20;;
9128;SDS011;4599;50.906;6.786;2023-08-20T13:25:30;8.13;;;4.22;;
9128;SDS011;4599;50.906;6.786;2023-08-20T13:29:53;5.25;;;4.15;;
9128;SDS011;4599;50.906;6.786;2023-08-20T13:34:16;6.30;;;4.00;;
9128;SDS011;4599;50.906;6.786;2023-08-20T13:38:37;5.70;;;3.85;;
9128;SDS011;4599;50.906;6.786;2023-08-20T13:42:59;5.50;;;3.72;;
9128;SDS011;4599;50.906;6.786;2023-08-20T13:47:22;8.07;;;3.90;;
9128;SDS011;4599;50.906;6.786;2023-08-20T13:51:44;12.65;;;4.05;;
9128;SDS011;4599;50.906;6.786;2023-08-20T13:56:06;4.72;;;4.13;;
9128;SDS011;4599;50.906;6.786;2023-08-20T14:00:28;4.75;;;3.90;;
9128;SDS011;4599;50.906;6.786;2023-08-20T14:04:52;4.55;;;3.60;;
9128;SDS011;4599;50.906;6.786;2023-08-20T14:09:13;7.03;;;4.03;;
9128;SDS011;4599;50.906;6.786;2023-08-20T14:13:38;5.07;;;3.80;;
9128;SDS011;4599;50.906;6.786;2023-08-20T14:18:00;6.93;;;5.05;;
9128;SDS011;4599;50.906;6.786;2023-08-20T14:22:23;5.53;;;4.47;;
9128;SDS011;4599;50.906;6.786;2023-08-20T14:26:45;7.63;;;3.85;;
9128;SDS011;4599;50.906;6.786;2023-08-20T14:31:07;4.75;;;3.92;;
9128;SDS011;4599;50.906;6.786;2023-08-20T14:35:29;4.40;;;3.90;;
9128;SDS011;4599;50.906;6.786;2023-08-20T14:39:53;8.30;;;4.18;;
9128;SDS011;4599;50.906;6.786;2023-08-20T14:44:15;4.97;;;3.97;;
9128;SDS011;4599;50.906;6.786;2023-08-20T14:48:37;6.55;;;4.10;;
9128;SDS011;4599;50.906;6.786;2023-08-20T14:52:59;5.00;;;4.47;;
9128;SDS011;4599;50.906;6.786;2023-08-20T14:57:23;6.18;;;4.05;;
9128;SDS011;4599;50.906;6.786;2023-08-20T15:01:55;5.60;;;3.80;;
9128;SDS011;4599;50.906;6.786;2023-08-20T15:06:18;4.68;;;3.95;;
9128;SDS011;4599;50.906;6.786;2023-08-20T15:10:40;6.18;;;4.32;;
9128;SDS011;4599;50.906;6.786;2023-08-20T15:15:05;5.20;;;3.72;;
9128;SDS011;4599;50.906;6.786;2023-08-20T15:19:28;4.38;;;3.60;;
9128;SDS011;4599;50.906;6.786;2023-08-20T15:23:50;5.20;;;3.92;;
9128;SDS011;4599;50.906;6.786;2023-08-20T15:28:12;4.93;;;3.78;;
9128;SDS011;4599;50.906;6.786;2023-08-20T15:32:35;6.88;;;3.65;;
9128;SDS011;4599;50.906;6.786;2023-08-20T15:36:57;5.35;;;4.03;;
9128;SDS011;4599;50.906;6.786;2023-08-20T15:41:19;6.68;;;4.22;;
9128;SDS011;4599;50.906;6.786;2023-08-20T15:45:42;4.63;;;3.83;;
9128;SDS011;4599;50.906;6.786;2023-08-20T15:50:06;8.25;;;3.95;;
9128;SDS011;4599;50.906;6.786;2023-08-20T15:54:28;6.35;;;3.80;;
9128;SDS011;4599;50.906;6.786;2023-08-20T15:58:50;6.57;;;3.97;;
9128;SDS011;4599;50.906;6.786;2023-08-20T16:03:12;7.03;;;3.90;;
9128;SDS011;4599;50.906;6.786;2023-08-20T16:07:36;4.43;;;3.95;;
9128;SDS011;4599;50.906;6.786;2023-08-20T16:11:59;4.40;;;3.88;;
9128;SDS011;4599;50.906;6.786;2023-08-20T16:16:21;5.07;;;3.95;;
9128;SDS011;4599;50.906;6.786;2023-08-20T16:20:43;5.57;;;4.15;;
9128;SDS011;4599;50.906;6.786;2023-08-20T16:25:07;5.18;;;4.30;;
9128;SDS011;4599;50.906;6.786;2023-08-20T16:29:29;6.15;;;4.03;;
9128;SDS011;4599;50.906;6.786;2023-08-20T16:33:51;4.88;;;4.30;;
9128;SDS011;4599;50.906;6.786;2023-08-20T16:38:15;5.25;;;3.70;;
9128;SDS011;4599;50.906;6.786;2023-08-20T16:42:39;6.32;;;4.22;;
9128;SDS011;4599;50.906;6.786;2023-08-20T16:47:01;6.82;;;4.25;;
9128;SDS011;4599;50.906;6.786;2023-08-20T16:51:23;4.10;;;3.70;;
9128;SDS011;4599;50.906;6.786;2023-08-20T16:55:49;9.07;;;4.47;;
9128;SDS011;4599;50.906;6.786;2023-08-20T17:00:13;4.65;;;3.90;;
9128;SDS011;4599;50.906;6.786;2023-08-20T17:04:35;7.72;;;4.10;;
9128;SDS011;4599;50.906;6.786;2023-08-20T17:08:57;5.50;;;4.00;;
9128;SDS011;4599;50.906;6.786;2023-08-20T17:13:19;4.95;;;3.67;;
9128;SDS011;4599;50.906;6.786;2023-08-20T17:17:43;6.35;;;3.40;;
9128;SDS011;4599;50.906;6.786;2023-08-20T17:22:05;10.20;;;3.60;;
9128;SDS011;4599;50.906;6.786;2023-08-20T17:26:28;5.45;;;3.03;;
9128;SDS011;4599;50.906;6.786;2023-08-20T17:30:50;4.22;;;3.25;;
9128;SDS011;4599;50.906;6.786;2023-08-20T17:35:14;7.60;;;3.08;;
9128;SDS011;4599;50.906;6.786;2023-08-20T17:39:36;5.25;;;2.88;;
9128;SDS011;4599;50.906;6.786;2023-08-20T17:43:59;7.95;;;3.38;;
9128;SDS011;4599;50.906;6.786;2023-08-20T17:48:21;5.27;;;3.50;;
9128;SDS011;4599;50.906;6.786;2023-08-20T17:52:45;3.95;;;3.13;;
9128;SDS011;4599;50.906;6.786;2023-08-20T17:57:08;5.38;;;2.85;;
9128;SDS011;4599;50.906;6.786;2023-08-20T18:01:30;4.07;;;3.03;;
9128;SDS011;4599;50.906;6.786;2023-08-20T18:05:52;5.05;;;2.97;;
9128;SDS011;4599;50.906;6.786;2023-08-20T18:10:17;4.75;;;2.92;;
9128;SDS011;4599;50.906;6.786;2023-08-20T18:14:39;5.55;;;2.97;;
9128;SDS011;4599;50.906;6.786;2023-08-20T18:19:01;7.67;;;2.90;;
9128;SDS011;4599;50.906;6.786;2023-08-20T18:23:23;5.83;;;2.90;;
9128;SDS011;4599;50.906;6.786;2023-08-20T18:27:47;5.07;;;3.07;;
9128;SDS011;4599;50.906;6.786;2023-08-20T18:32:09;6.37;;;2.60;;
9128;SDS011;4599;50.906;6.786;2023-08-20T18:36:31;4.82;;;2.65;;
9128;SDS011;4599;50.906;6.786;2023-08-20T18:40:52;5.27;;;2.60;;
9128;SDS011;4599;50.906;6.786;2023-08-20T18:45:16;11.30;;;6.13;;
9128;SDS011;4599;50.906;6.786;2023-08-20T18:49:38;5.97;;;3.23;;
9128;SDS011;4599;50.906;6.786;2023-08-20T18:54:00;6.17;;;2.90;;
9128;SDS011;4599;50.906;6.786;2023-08-20T18:58:22;6.63;;;3.00;;
9128;SDS011;4599;50.906;6.786;2023-08-20T19:02:45;6.93;;;2.87;;
9128;SDS011;4599;50.906;6.786;2023-08-20T19:07:07;4.97;;;2.77;;
9128;SDS011;4599;50.906;6.786;2023-08-20T19:11:29;2.90;;;2.43;;
9128;SDS011;4599;50.906;6.786;2023-08-20T19:15:51;7.43;;;2.90;;
9128;SDS011;4599;50.906;6.786;2023-08-20T19:20:16;4.43;;;2.57;;
9128;SDS011;4599;50.906;6.786;2023-08-20T19:24:38;4.87;;;2.97;;
9128;SDS011;4599;50.906;6.786;2023-08-20T19:29:00;6.47;;;3.27;;
9128;SDS011;4599;50.906;6.786;2023-08-20T19:33:22;4.87;;;2.83;;
9128;SDS011;4599;50.906;6.786;2023-08-20T19:37:45;5.23;;;3.07;;
9128;SDS011;4599;50.906;6.786;2023-08-20T19:42:07;6.37;;;3.37;;
9128;SDS011;4599;50.906;6.786;2023-08-20T19:46:29;6.67;;;3.37;;
9128;SDS011;4599;50.906;6.786;2023-08-20T19:50:51;5.23;;;3.03;;
9128;SDS011;4599;50.906;6.786;2023-08-20T19:55:14;6.77;;;2.97;;
9128;SDS011;4599;50.906;6.786;2023-08-20T19:59:36;5.13;;;3.00;;
9128;SDS011;4599;50.906;6.786;2023-08-20T20:03:58;8.80;;;3.17;;
9128;SDS011;4599;50.906;6.786;2023-08-20T20:08:20;6.00;;;3.03;;
9128;SDS011;4599;50.906;6.786;2023-08-20T20:12:47;5.73;;;3.13;;
9128;SDS011;4599;50.906;6.786;2023-08-20T20:17:09;6.50;;;3.17;;
9128;SDS011;4599;50.906;6.786;2023-08-20T20:21:32;4.93;;;3.13;;
9128;SDS011;4599;50.906;6.786;2023-08-20T20:25:54;6.90;;;3.00;;
9128;SDS011;4599;50.906;6.786;2023-08-20T20:30:17;6.50;;;3.17;;
9128;SDS011;4599;50.906;6.786;2023-08-20T20:34:39;6.63;;;3.33;;
9128;SDS011;4599;50.906;6.786;2023-08-20T20:39:01;6.10;;;3.37;;
9128;SDS011;4599;50.906;6.786;2023-08-20T20:43:23;5.63;;;3.37;;
9128;SDS011;4599;50.906;6.786;2023-08-20T20:47:46;4.93;;;3.50;;
9128;SDS011;4599;50.906;6.786;2023-08-20T20:52:09;7.80;;;3.60;;
9128;SDS011;4599;50.906;6.786;2023-08-20T20:56:30;6.47;;;3.33;;
9128;SDS011;4599;50.906;6.786;2023-08-20T21:00:55;5.07;;;3.47;;
9128;SDS011;4599;50.906;6.786;2023-08-20T21:05:18;6.23;;;3.40;;
9128;SDS011;4599;50.906;6.786;2023-08-20T21:09:41;5.90;;;3.70;;
9128;SDS011;4599;50.906;6.786;2023-08-20T21:14:02;6.47;;;3.40;;
9128;SDS011;4599;50.906;6.786;2023-08-20T21:18:24;7.10;;;3.63;;
9128;SDS011;4599;50.906;6.786;2023-08-20T21:22:48;5.80;;;3.57;;
9128;SDS011;4599;50.906;6.786;2023-08-20T21:27:10;6.17;;;3.50;;
9128;SDS011;4599;50.906;6.786;2023-08-20T21:31:32;5.77;;;3.60;;
9128;SDS011;4599;50.906;6.786;2023-08-20T21:35:54;7.03;;;3.33;;
9128;SDS011;4599;50.906;6.786;2023-08-20T21:40:17;5.77;;;3.67;;
9128;SDS011;4599;50.906;6.786;2023-08-20T21:44:39;12.43;;;3.70;;
9128;SDS011;4599;50.906;6.786;2023-08-20T21:49:01;6.97;;;3.50;;
9128;SDS011;4599;50.906;6.786;2023-08-20T21:53:23;5.67;;;3.40;;
9128;SDS011;4599;50.906;6.786;2023-08-20T21:57:48;4.93;;;3.50;;
9128;SDS011;4599;50.906;6.786;2023-08-20T22:02:11;5.70;;;3.73;;
9128;SDS011;4599;50.906;6.786;2023-08-20T22:06:32;6.87;;;3.93;;
9128;SDS011;4599;50.906;6.786;2023-08-20T22:10:54;9.30;;;3.70;;
9128;SDS011;4599;50.906;6.786;2023-08-20T22:15:18;9.33;;;4.13;;
9128;SDS011;4599;50.906;6.786;2023-08-20T22:19:40;7.17;;;3.90;;
9128;SDS011;4599;50.906;6.786;2023-08-20T22:24:02;7.67;;;4.23;;
9128;SDS011;4599;50.906;6.786;2023-08-20T22:28:25;5.80;;;3.63;;
9128;SDS011;4599;50.906;6.786;2023-08-20T22:32:48;9.07;;;4.03;;
9128;SDS011;4599;50.906;6.786;2023-08-20T22:37:10;6.90;;;4.03;;
9128;SDS011;4599;50.906;6.786;2023-08-20T22:41:32;9.00;;;4.13;;
9128;SDS011;4599;50.906;6.786;2023-08-20T22:45:54;5.33;;;4.20;;
9128;SDS011;4599;50.906;6.786;2023-08-20T22:50:17;6.83;;;4.60;;
9128;SDS011;4599;50.906;6.786;2023-08-20T22:54:39;8.20;;;4.50;;
9128;SDS011;4599;50.906;6.786;2023-08-20T22:59:01;9.50;;;4.47;;
9128;SDS011;4599;50.906;6.786;2023-08-20T23:03:23;8.10;;;4.77;;
9128;SDS011;4599;50.906;6.786;2023-08-20T23:07:46;7.13;;;4.33;;
9128;SDS011;4599;50.906;6.786;2023-08-20T23:12:08;6.90;;;3.93;;
9128;SDS011;4599;50.906;6.786;2023-08-20T23:16:31;7.23;;;4.20;;
9128;SDS011;4599;50.906;6.786;2023-08-20T23:20:53;7.83;;;4.47;;
9128;SDS011;4599;50.906;6.786;2023-08-20T23:25:22;4.90;;;4.10;;
9128;SDS011;4599;50.906;6.786;2023-08-20T23:29:44;6.97;;;4.20;;
9128;SDS011;4599;50.906;6.786;2023-08-20T23:34:07;7.63;;;4.07;;
9128;SDS011;4599;50.906;6.786;2023-08-20T23:38:28;8.40;;;4.70;;
9128;SDS011;4599;50.906;6.786;2023-08-20T23:42:52;6.40;;;4.10;;
9128;SDS011;4599;50.906;6.786;2023-08-20T23:47:14;9.50;;;4.63;;
9128;SDS011;4599;50.906;6.786;2023-08-20T23:51:36;7.97;;;4.43;;
9128;SDS011;4599;50.906;6.786;2023-08-20T23:55:58;9.33;;;4.53;;
